createdAt,value
2018-02-03T00:01:07.104Z,100.00
2018-02-03T00:03:37.261Z,100.00
2018-02-03T00:06:07.382Z,100.00
2018-02-03T00:08:39.179Z,100.00
2018-02-03T00:11:09.204Z,100.00
2018-02-03T00:13:39.169Z,100.00
2018-02-03T00:16:10.999Z,100.00
2018-02-03T00:18:40.707Z,100.00
2018-02-03T00:21:10.605Z,100.00
2018-02-03T00:23:40.324Z,100.00
2018-02-03T00:26:10.249Z,100.00
2018-02-03T00:28:40.576Z,100.00
2018-02-03T00:31:11.205Z,100.00
2018-02-03T00:33:41.678Z,100.00
2018-02-03T00:36:13.406Z,100.00
2018-02-03T00:38:43.468Z,100.00
2018-02-03T00:41:13.823Z,100.00
2018-02-03T00:43:43.777Z,100.00
2018-02-03T00:46:13.518Z,100.00
2018-02-03T00:48:46.452Z,100.00
2018-02-03T00:51:16.508Z,100.00
2018-02-03T00:53:46.452Z,100.00
2018-02-03T00:56:17.447Z,100.00
2018-02-03T00:58:48.361Z,100.00
2018-02-03T01:01:18.293Z,100.00
2018-02-03T01:03:48.220Z,100.00
2018-02-03T01:06:18.221Z,100.00
2018-02-03T01:08:48.372Z,100.00
2018-02-03T01:11:18.495Z,100.00
2018-02-03T01:13:48.471Z,100.00
2018-02-03T01:16:19.446Z,100.00
2018-02-03T01:18:50.198Z,100.00
2018-02-03T01:21:20.098Z,100.00
2018-02-03T01:23:50.360Z,100.00
2018-02-03T01:26:20.445Z,100.00
2018-02-03T01:28:50.668Z,100.00
2018-02-03T01:31:20.585Z,100.00
2018-02-03T01:33:50.424Z,100.00
2018-02-03T01:36:20.649Z,100.00
2018-02-03T01:38:50.562Z,100.00
2018-02-03T01:41:20.494Z,100.00
2018-02-03T01:43:50.679Z,100.00
2018-02-03T01:46:20.688Z,100.00
2018-02-03T01:48:51.148Z,100.00
2018-02-03T01:51:22.462Z,100.00
2018-02-03T01:53:52.461Z,100.00
2018-02-03T01:56:22.533Z,100.00
2018-02-03T01:58:52.532Z,100.00
2018-02-03T02:01:22.535Z,100.00
2018-02-03T02:03:52.672Z,100.00
2018-02-03T02:06:22.088Z,100.00
2018-02-03T02:08:52.164Z,100.00
2018-02-03T02:11:22.128Z,100.00
2018-02-03T02:13:53.377Z,100.00
2018-02-03T02:16:23.816Z,100.00
2018-02-03T02:21:28.343Z,100.00
2018-02-03T02:23:58.402Z,100.00
2018-02-03T02:26:29.257Z,100.00
2018-02-03T02:28:59.734Z,100.00
2018-02-03T02:31:29.836Z,100.00
2018-02-03T02:33:59.837Z,100.00
2018-02-03T02:36:29.961Z,100.00
2018-02-03T02:38:59.917Z,100.00
2018-02-03T02:41:30.541Z,100.00
2018-02-03T02:44:00.560Z,100.00
2018-02-03T02:46:30.481Z,100.00
2018-02-03T02:49:00.436Z,100.00
2018-02-03T02:54:09.182Z,100.00
2018-02-03T02:56:39.510Z,100.00
2018-02-03T02:59:09.389Z,100.00
2018-02-03T03:01:40.205Z,100.00
2018-02-03T03:04:10.166Z,100.00
2018-02-03T03:06:40.167Z,100.00
2018-02-03T03:09:10.066Z,100.00
2018-02-03T03:11:40.053Z,100.00
2018-02-03T03:14:10.084Z,100.00
2018-02-03T03:16:39.984Z,100.00
2018-02-03T03:19:10.175Z,100.00
2018-02-03T03:21:40.133Z,100.00
2018-02-03T03:24:10.110Z,100.00
2018-02-03T03:26:40.047Z,100.00
2018-02-03T03:29:09.979Z,100.00
2018-02-03T03:31:40.165Z,100.00
2018-02-03T03:34:10.062Z,100.00
2018-02-03T03:36:40.033Z,100.00
2018-02-03T03:39:09.991Z,100.00
2018-02-03T03:41:39.925Z,100.00
2018-02-03T03:44:09.908Z,100.00
2018-02-03T03:46:39.190Z,100.00
2018-02-03T03:49:08.788Z,100.00
2018-02-03T03:51:42.262Z,100.00
2018-02-03T03:54:12.330Z,100.00
2018-02-03T03:56:42.361Z,100.00
2018-02-03T03:59:12.276Z,100.00
2018-02-03T04:01:42.236Z,100.00
2018-02-03T04:04:12.175Z,100.00
2018-02-03T04:06:42.175Z,100.00
2018-02-03T04:09:12.459Z,100.00
2018-02-03T04:11:42.369Z,100.00
2018-02-03T04:14:12.575Z,99.30
2018-02-03T04:16:42.317Z,98.72
2018-02-03T04:19:12.245Z,97.83
2018-02-03T04:21:41.898Z,97.37
2018-02-03T04:24:11.785Z,97.18
2018-02-03T04:26:41.761Z,97.27
2018-02-03T04:29:11.104Z,97.71
2018-02-03T04:31:41.104Z,98.15
2018-02-03T04:34:11.038Z,98.50
2018-02-03T04:36:41.134Z,98.70
2018-02-03T04:39:10.872Z,98.84
2018-02-03T04:41:40.865Z,98.82
2018-02-03T04:44:10.820Z,98.72
2018-02-03T04:46:44.818Z,98.59
2018-02-03T04:49:14.762Z,98.58
2018-02-03T04:51:44.869Z,98.33
2018-02-03T04:54:15.809Z,98.17
2018-02-03T04:56:47.653Z,98.21
2018-02-03T04:59:17.703Z,98.29
2018-02-03T05:01:47.777Z,98.34
2018-02-03T05:04:19.523Z,98.50
2018-02-03T05:06:49.201Z,98.71
2018-02-03T05:09:19.115Z,98.86
2018-02-03T05:11:49.037Z,99.10
2018-02-03T05:14:19.808Z,99.33
2018-02-03T05:16:49.804Z,99.55
2018-02-03T05:19:34.994Z,99.77
2018-02-03T05:24:49.951Z,100.00
2018-02-03T05:27:22.737Z,100.00
2018-02-03T05:29:57.863Z,100.00
2018-02-03T05:32:31.033Z,100.00
2018-02-03T05:35:04.174Z,100.00
2018-02-03T05:37:36.412Z,100.00
2018-02-03T05:40:05.998Z,100.00
2018-02-03T05:42:35.779Z,100.00
2018-02-03T05:45:08.870Z,100.00
2018-02-03T05:47:38.709Z,100.00
2018-02-03T05:50:08.458Z,100.00
2018-02-03T05:52:39.040Z,100.00
2018-02-03T05:55:08.933Z,100.00
2018-02-03T05:57:38.865Z,100.00
2018-02-03T06:00:21.728Z,100.00
2018-02-03T06:02:51.723Z,100.00
2018-02-03T06:05:44.124Z,99.89
2018-02-03T06:08:14.102Z,99.50
2018-02-03T06:13:44.279Z,98.46
2018-02-03T06:16:14.215Z,97.66
2018-02-03T06:18:44.172Z,96.76
2018-02-03T06:21:13.854Z,96.50
2018-02-03T06:23:47.510Z,96.72
2018-02-03T06:26:19.095Z,96.79
2018-02-03T06:28:49.032Z,97.09
2018-02-03T06:31:19.121Z,97.30
2018-02-03T06:33:49.446Z,97.33
2018-02-03T06:36:20.132Z,97.32
2018-02-03T06:38:50.821Z,97.16
2018-02-03T06:41:20.614Z,96.44
2018-02-03T06:43:52.456Z,96.22
2018-02-03T06:46:22.448Z,96.46
2018-02-03T06:57:50.846Z,95.97
2018-02-03T07:00:22.551Z,95.48
2018-02-03T07:11:17.586Z,94.57
2018-02-03T07:13:48.392Z,94.63
2018-02-03T07:16:20.621Z,94.30
2018-02-03T07:18:53.164Z,93.73
2018-02-03T07:21:23.114Z,92.84
2018-02-03T07:31:06.673Z,94.31
2018-02-03T07:36:31.184Z,94.56
2018-02-03T07:39:01.252Z,94.65
2018-02-03T07:41:44.672Z,94.63
2018-02-03T07:49:53.443Z,92.75
2018-02-03T07:52:31.253Z,92.83
2018-02-03T07:55:03.921Z,91.91
2018-02-03T07:57:35.544Z,91.63
2018-02-03T08:00:06.035Z,91.11
2018-02-03T08:02:39.934Z,89.99
2018-02-03T08:05:18.242Z,90.28
2018-02-03T08:07:57.255Z,89.69
2018-02-03T08:10:30.856Z,88.19
2018-02-03T08:13:01.728Z,87.83
2018-02-03T08:24:21.087Z,87.03
2018-02-03T08:27:25.472Z,87.42
2018-02-03T08:38:10.203Z,84.82
2018-02-03T08:53:47.354Z,83.81
2018-02-03T09:21:28.769Z,81.29
2018-02-03T09:32:39.756Z,80.34
2018-02-03T09:35:24.880Z,79.53
2018-02-03T09:43:52.931Z,78.38
2018-02-03T09:46:23.182Z,77.58
2018-02-03T09:48:55.518Z,77.63
2018-02-03T09:54:28.586Z,76.50
2018-02-03T09:57:08.402Z,76.37
2018-02-03T09:59:39.967Z,76.04
2018-02-03T10:02:25.867Z,75.41
2018-02-03T10:07:31.856Z,74.53
2018-02-03T10:10:21.921Z,74.96
2018-02-03T10:13:09.069Z,74.71
2018-02-03T10:18:37.776Z,73.73
2018-02-03T10:23:51.929Z,73.31
2018-02-03T10:26:37.967Z,74.08
2018-02-03T10:29:08.811Z,73.69
2018-02-03T10:31:40.267Z,73.80
2018-02-03T10:34:38.349Z,73.61
2018-02-03T10:48:40.941Z,73.63
2018-02-03T10:53:58.334Z,75.03
2018-02-03T10:59:25.704Z,75.28
2018-02-03T11:05:05.180Z,75.14
2018-02-03T11:07:37.054Z,74.95
2018-02-03T11:12:43.345Z,75.22
2018-02-03T11:15:24.699Z,75.18
2018-02-03T11:17:54.632Z,75.21
2018-02-03T11:20:24.883Z,75.56
2018-02-03T11:22:58.182Z,75.42
2018-02-03T11:25:29.077Z,75.71
2018-02-03T11:28:02.481Z,76.23
2018-02-03T11:53:59.509Z,75.71
2018-02-03T12:12:20.609Z,76.57
2018-02-03T12:17:36.222Z,76.04
2018-02-03T12:20:10.402Z,76.16
2018-02-03T12:22:40.009Z,76.08
2018-02-03T12:25:22.906Z,75.23
2018-02-03T12:27:56.712Z,74.73
2018-02-03T12:30:26.827Z,74.18
2018-02-03T12:32:56.890Z,75.05
2018-02-03T12:41:37.873Z,73.91
2018-02-03T12:53:14.110Z,73.45
2018-02-03T12:58:40.556Z,74.50
2018-02-03T13:01:27.063Z,75.70
2018-02-03T13:03:59.126Z,76.05
2018-02-03T13:06:29.747Z,75.93
2018-02-03T13:09:08.584Z,76.18
2018-02-03T13:14:29.401Z,75.14
2018-02-03T13:22:37.049Z,74.29
2018-02-03T13:27:42.048Z,74.59
2018-02-03T13:30:20.229Z,74.23
2018-02-03T13:39:13.947Z,73.36
2018-02-03T13:44:37.707Z,73.12
2018-02-03T14:01:37.980Z,72.55
2018-02-03T14:09:32.979Z,72.67
2018-02-03T14:14:37.169Z,71.09
2018-02-03T14:17:07.366Z,70.86
2018-02-03T14:19:38.927Z,70.67
2018-02-03T14:22:09.314Z,70.27
2018-02-03T14:24:45.140Z,70.11
2018-02-03T14:27:14.810Z,70.81
2018-02-03T14:29:44.634Z,70.52
2018-02-03T14:32:17.006Z,70.01
2018-02-03T14:34:48.247Z,69.83
2018-02-03T14:37:18.723Z,70.16
2018-02-03T14:39:48.890Z,71.09
2018-02-03T14:42:18.949Z,70.55
2018-02-03T14:44:48.797Z,70.66
2018-02-03T14:47:19.702Z,70.96
2018-02-03T14:49:49.519Z,72.00
2018-02-03T14:52:19.379Z,73.15
2018-02-03T14:54:49.263Z,73.42
2018-02-03T14:57:19.076Z,74.99
2018-02-03T14:59:48.890Z,75.26
2018-02-03T15:02:19.045Z,75.58
2018-02-03T15:04:49.018Z,75.26
2018-02-03T15:07:18.821Z,75.49
2018-02-03T15:09:48.635Z,76.01
2018-02-03T15:12:18.529Z,76.22
2018-02-03T15:14:48.990Z,76.17
2018-02-03T15:17:18.855Z,76.36
2018-02-03T15:19:48.700Z,76.31
2018-02-03T15:22:19.155Z,77.10
2018-02-03T15:24:49.826Z,77.00
2018-02-03T15:27:19.951Z,77.71
2018-02-03T15:29:50.855Z,78.21
2018-02-03T15:32:20.833Z,79.90
2018-02-03T15:34:50.667Z,79.17
2018-02-03T15:37:20.208Z,78.72
2018-02-03T15:39:50.121Z,78.90
2018-02-03T15:42:19.948Z,79.35
2018-02-03T15:44:50.234Z,79.47
2018-02-03T15:47:20.060Z,79.96
2018-02-03T15:49:49.897Z,79.82
2018-02-03T15:52:19.676Z,80.01
2018-02-03T15:54:49.585Z,80.08
2018-02-03T15:57:19.204Z,80.30
2018-02-03T15:59:49.061Z,80.67
2018-02-03T16:02:18.621Z,80.85
2018-02-03T16:04:48.442Z,80.77
2018-02-03T16:07:18.347Z,81.15
2018-02-03T16:09:48.148Z,81.14
2018-02-03T16:12:17.717Z,81.35
2018-02-03T16:14:47.095Z,82.19
2018-02-03T16:17:16.896Z,82.42
2018-02-03T16:19:46.688Z,82.83
2018-02-03T16:22:16.618Z,83.02
2018-02-03T16:24:46.469Z,82.62
2018-02-03T16:27:16.775Z,82.82
2018-02-03T16:29:46.373Z,82.80
2018-02-03T16:32:16.392Z,82.69
2018-02-03T16:34:46.280Z,82.83
2018-02-03T16:37:27.299Z,82.88
2018-02-03T16:40:03.936Z,82.84
2018-02-03T16:42:36.403Z,83.08
2018-02-03T16:45:06.510Z,83.25
2018-02-03T16:47:36.375Z,83.15
2018-02-03T16:50:06.687Z,83.73
2018-02-03T16:52:36.653Z,83.92
2018-02-03T16:55:08.122Z,84.18
2018-02-03T16:57:37.910Z,84.33
2018-02-03T17:00:09.376Z,84.59
2018-02-03T17:02:39.274Z,84.48
2018-02-03T17:05:09.888Z,84.75
2018-02-03T17:07:39.804Z,85.07
2018-02-03T17:10:19.485Z,85.17
2018-02-03T17:13:05.517Z,84.99
2018-02-03T17:15:37.789Z,84.84
2018-02-03T17:18:08.136Z,85.27
2018-02-03T17:20:42.238Z,85.50
2018-02-03T17:23:12.842Z,85.47
2018-02-03T17:25:42.768Z,85.29
2018-02-03T17:28:13.291Z,85.33
2018-02-03T17:30:43.251Z,85.39
2018-02-03T17:33:13.088Z,85.34
2018-02-03T17:35:43.015Z,85.52
2018-02-03T17:38:18.395Z,85.62
2018-02-03T17:40:48.379Z,85.99
2018-02-03T17:43:18.325Z,86.51
2018-02-03T17:45:53.240Z,86.42
2018-02-03T17:48:24.682Z,86.15
2018-02-03T17:50:54.483Z,86.28
2018-02-03T17:53:33.263Z,86.17
2018-02-03T17:56:08.686Z,86.05
2018-02-03T17:58:38.564Z,85.91
2018-02-03T18:01:08.624Z,86.09
2018-02-03T18:03:39.062Z,86.18
2018-02-03T18:06:08.989Z,86.31
2018-02-03T18:08:38.678Z,86.56
2018-02-03T18:11:08.406Z,86.40
2018-02-03T18:13:39.156Z,86.36
2018-02-03T18:16:10.736Z,86.78
2018-02-03T18:18:40.752Z,86.23
2018-02-03T18:21:10.658Z,86.66
2018-02-03T18:23:54.102Z,86.09
2018-02-03T18:26:25.763Z,85.60
2018-02-03T18:28:55.882Z,85.25
2018-02-03T18:31:27.179Z,84.95
2018-02-03T18:33:57.407Z,84.88
2018-02-03T18:36:26.714Z,84.71
2018-02-03T18:38:56.355Z,84.71
2018-02-03T18:41:26.304Z,84.87
2018-02-03T18:43:55.834Z,84.99
2018-02-03T18:46:25.929Z,85.22
2018-02-03T18:48:55.599Z,85.75
2018-02-03T18:51:25.682Z,85.64
2018-02-03T18:53:55.628Z,85.41
2018-02-03T18:56:25.557Z,87.39
2018-02-03T18:58:55.422Z,89.02
2018-02-03T19:01:26.374Z,90.54
2018-02-03T19:03:56.349Z,91.54
2018-02-03T19:06:26.280Z,92.26
2018-02-03T19:08:56.639Z,92.97
2018-02-03T19:11:26.477Z,93.49
2018-02-03T19:13:56.000Z,93.35
2018-02-03T19:16:26.642Z,93.23
2018-02-03T19:18:56.237Z,93.12
2018-02-03T19:21:26.771Z,93.42
2018-02-03T19:23:56.658Z,93.69
2018-02-03T19:26:26.985Z,94.16
2018-02-03T19:28:56.916Z,94.67
2018-02-03T19:31:26.810Z,94.93
2018-02-03T19:39:08.875Z,96.05
2018-02-03T19:41:41.696Z,96.43
2018-02-03T19:44:11.590Z,96.55
2018-02-03T19:46:41.452Z,96.56
2018-02-03T19:49:11.510Z,96.56
2018-02-03T19:51:41.444Z,96.45
2018-02-03T19:54:11.583Z,96.54
2018-02-03T19:56:41.574Z,96.44
2018-02-03T19:59:11.507Z,96.28
2018-02-03T20:01:41.414Z,96.19
2018-02-03T20:04:11.564Z,96.33
2018-02-03T20:06:41.471Z,96.22
2018-02-03T20:09:11.749Z,95.95
2018-02-03T20:11:41.653Z,95.97
2018-02-03T20:14:11.543Z,95.69
2018-02-03T20:16:41.502Z,95.42
2018-02-03T20:19:11.480Z,95.41
2018-02-03T20:21:41.342Z,95.65
2018-02-03T20:24:11.217Z,95.80
2018-02-03T20:26:41.052Z,96.07
2018-02-03T20:29:11.086Z,96.26
2018-02-03T20:31:41.009Z,96.42
2018-02-03T20:34:10.854Z,96.57
2018-02-03T20:36:40.875Z,96.66
2018-02-03T20:39:10.789Z,96.56
2018-02-03T20:41:40.106Z,96.71
2018-02-03T20:44:09.954Z,96.82
2018-02-03T20:46:39.775Z,97.15
2018-02-03T20:49:09.676Z,97.19
2018-02-03T20:51:39.474Z,97.18
2018-02-03T20:54:09.287Z,97.25
2018-02-03T20:56:38.959Z,97.23
2018-02-03T20:59:08.830Z,97.10
2018-02-03T21:01:38.660Z,96.99
2018-02-03T21:04:08.472Z,97.06
2018-02-03T21:06:38.287Z,96.98
2018-02-03T21:09:08.105Z,96.89
2018-02-03T21:11:38.011Z,96.67
2018-02-03T21:14:07.869Z,96.92
2018-02-03T21:16:37.682Z,97.00
2018-02-03T21:19:07.508Z,96.98
2018-02-03T21:21:37.338Z,96.85
2018-02-03T21:24:07.180Z,95.91
2018-02-03T21:26:37.073Z,95.47
2018-02-03T21:29:06.905Z,95.11
2018-02-03T21:31:36.767Z,94.59
2018-02-03T21:34:06.597Z,94.68
2018-02-03T21:36:36.469Z,94.67
2018-02-03T21:39:06.004Z,94.60
2018-02-03T21:41:35.810Z,94.39
2018-02-03T21:44:05.621Z,94.66
2018-02-03T21:46:35.433Z,94.87
2018-02-03T21:49:05.013Z,94.83
2018-02-03T21:51:35.106Z,94.87
2018-02-03T21:54:05.327Z,95.00
2018-02-03T21:56:35.134Z,95.15
2018-02-03T21:59:04.990Z,95.07
2018-02-03T22:01:34.935Z,95.59
2018-02-03T22:04:04.830Z,96.09
2018-02-03T22:06:34.941Z,95.96
2018-02-03T22:09:04.195Z,96.03
2018-02-03T22:11:34.065Z,96.10
2018-02-03T22:14:03.958Z,96.05
2018-02-03T22:16:33.766Z,95.90
2018-02-03T22:19:03.718Z,95.86
2018-02-03T22:21:33.609Z,95.69
2018-02-03T22:24:03.495Z,95.70
2018-02-03T22:26:33.569Z,95.82
2018-02-03T22:29:03.466Z,96.42
2018-02-03T22:31:33.343Z,96.73
2018-02-03T22:34:03.299Z,96.81
2018-02-03T22:36:33.116Z,96.65
2018-02-03T22:39:02.961Z,96.42
2018-02-03T22:41:32.778Z,96.36
2018-02-03T22:44:02.599Z,96.51
2018-02-03T22:46:32.729Z,96.55
2018-02-03T22:49:02.625Z,96.57
2018-02-03T22:51:33.545Z,96.67
2018-02-03T22:54:03.370Z,96.61
2018-02-03T22:56:33.082Z,97.01
2018-02-03T22:59:02.709Z,97.45
2018-02-03T23:01:33.226Z,97.97
2018-02-03T23:04:03.066Z,97.79
2018-02-03T23:06:33.144Z,97.60
2018-02-03T23:09:02.961Z,97.55
2018-02-03T23:11:32.836Z,97.68
2018-02-03T23:14:03.269Z,97.61
2018-02-03T23:16:33.847Z,97.58
2018-02-03T23:19:04.113Z,97.67
2018-02-03T23:21:35.105Z,97.85
2018-02-03T23:31:56.962Z,99.86
2018-02-03T23:37:02.086Z,100.00
2018-02-03T23:39:35.909Z,100.00
2018-02-03T23:42:07.065Z,100.00
2018-02-03T23:44:37.361Z,100.00
2018-02-03T23:47:09.624Z,100.00
2018-02-03T23:49:39.679Z,100.00
2018-02-03T23:52:16.560Z,100.00
2018-02-03T23:54:48.410Z,100.00
2018-02-03T23:57:22.985Z,100.00
2018-02-03T23:59:58.762Z,100.00
